sensor_id;sensor_type;location;lat;lon;timestamp;pressure;altitude;pressure_sealevel;temperature
11849;BMP180;5983;49.966;8.052;2023-05-10T00:02:25;99822.00;;;14.30
11849;BMP180;5983;49.966;8.052;2023-05-10T00:04:52;99826.00;;;14.30
11849;BMP180;5983;49.966;8.052;2023-05-10T00:07:19;99826.00;;;14.30
11849;BMP180;5983;49.966;8.052;2023-05-10T00:09:46;99824.00;;;14.30
11849;BMP180;5983;49.966;8.052;2023-05-10T00:12:12;99822.00;;;14.30
11849;BMP180;5983;49.966;8.052;2023-05-10T00:14:39;99818.00;;;14.30
11849;BMP180;5983;49.966;8.052;2023-05-10T00:17:06;99826.00;;;14.20
11849;BMP180;5983;49.966;8.052;2023-05-10T00:19:34;99828.00;;;14.30
11849;BMP180;5983;49.966;8.052;2023-05-10T00:22:01;99830.00;;;14.20
11849;BMP180;5983;49.966;8.052;2023-05-10T00:24:28;99832.00;;;14.20
11849;BMP180;5983;49.966;8.052;2023-05-10T00:26:55;99835.00;;;14.20
11849;BMP180;5983;49.966;8.052;2023-05-10T00:29:22;99834.00;;;14.20
11849;BMP180;5983;49.966;8.052;2023-05-10T00:31:48;99840.00;;;14.20
11849;BMP180;5983;49.966;8.052;2023-05-10T00:34:15;99829.00;;;14.20
11849;BMP180;5983;49.966;8.052;2023-05-10T00:36:43;99828.00;;;14.20
11849;BMP180;5983;49.966;8.052;2023-05-10T00:39:10;99830.00;;;14.20
11849;BMP180;5983;49.966;8.052;2023-05-10T00:41:37;99826.00;;;14.20
11849;BMP180;5983;49.966;8.052;2023-05-10T00:44:04;99842.00;;;14.20
11849;BMP180;5983;49.966;8.052;2023-05-10T00:46:31;99836.00;;;14.20
11849;BMP180;5983;49.966;8.052;2023-05-10T00:48:58;99834.00;;;14.20
11849;BMP180;5983;49.966;8.052;2023-05-10T00:51:25;99828.00;;;14.20
11849;BMP180;5983;49.966;8.052;2023-05-10T00:53:53;99830.00;;;14.20
11849;BMP180;5983;49.966;8.052;2023-05-10T00:56:21;99824.00;;;14.10
11849;BMP180;5983;49.966;8.052;2023-05-10T00:58:49;99833.00;;;14.20
11849;BMP180;5983;49.966;8.052;2023-05-10T01:01:16;99825.00;;;14.20
11849;BMP180;5983;49.966;8.052;2023-05-10T01:03:43;99834.00;;;14.10
11849;BMP180;5983;49.966;8.052;2023-05-10T01:06:10;99829.00;;;14.10
11849;BMP180;5983;49.966;8.052;2023-05-10T01:08:37;99832.00;;;14.10
11849;BMP180;5983;49.966;8.052;2023-05-10T01:11:05;99829.00;;;14.10
11849;BMP180;5983;49.966;8.052;2023-05-10T01:13:34;99818.00;;;14.10
11849;BMP180;5983;49.966;8.052;2023-05-10T01:16:01;99829.00;;;14.10
11849;BMP180;5983;49.966;8.052;2023-05-10T01:18:29;99836.00;;;14.10
11849;BMP180;5983;49.966;8.052;2023-05-10T01:21:09;99826.00;;;14.10
11849;BMP180;5983;49.966;8.052;2023-05-10T01:23:56;99826.00;;;14.10
11849;BMP180;5983;49.966;8.052;2023-05-10T01:26:43;99819.00;;;14.10
11849;BMP180;5983;49.966;8.052;2023-05-10T01:29:39;99812.00;;;14.10
11849;BMP180;5983;49.966;8.052;2023-05-10T01:32:21;99826.00;;;14.10
11849;BMP180;5983;49.966;8.052;2023-05-10T01:34:55;99830.00;;;14.00
11849;BMP180;5983;49.966;8.052;2023-05-10T01:37:31;99828.00;;;14.00
11849;BMP180;5983;49.966;8.052;2023-05-10T01:40:04;99833.00;;;14.00
11849;BMP180;5983;49.966;8.052;2023-05-10T01:42:37;99841.00;;;14.00
11849;BMP180;5983;49.966;8.052;2023-05-10T01:45:11;99838.00;;;14.00
11849;BMP180;5983;49.966;8.052;2023-05-10T01:47:43;99845.00;;;14.00
11849;BMP180;5983;49.966;8.052;2023-05-10T01:50:15;99845.00;;;14.00
11849;BMP180;5983;49.966;8.052;2023-05-10T01:52:47;99836.00;;;13.90
11849;BMP180;5983;49.966;8.052;2023-05-10T01:55:18;99842.00;;;13.90
11849;BMP180;5983;49.966;8.052;2023-05-10T01:57:48;99839.00;;;14.00
11849;BMP180;5983;49.966;8.052;2023-05-10T02:00:18;99844.00;;;13.90
11849;BMP180;5983;49.966;8.052;2023-05-10T02:02:48;99852.00;;;13.90
11849;BMP180;5983;49.966;8.052;2023-05-10T02:05:16;99847.00;;;13.90
11849;BMP180;5983;49.966;8.052;2023-05-10T02:07:44;99853.00;;;13.90
11849;BMP180;5983;49.966;8.052;2023-05-10T02:10:11;99849.00;;;14.00
11849;BMP180;5983;49.966;8.052;2023-05-10T02:12:42;99854.00;;;13.90
11849;BMP180;5983;49.966;8.052;2023-05-10T02:15:10;99866.00;;;14.00
11849;BMP180;5983;49.966;8.052;2023-05-10T02:17:39;99859.00;;;14.00
11849;BMP180;5983;49.966;8.052;2023-05-10T02:20:08;99862.00;;;14.00
11849;BMP180;5983;49.966;8.052;2023-05-10T02:22:36;99865.00;;;14.00
11849;BMP180;5983;49.966;8.052;2023-05-10T02:25:04;99871.00;;;14.00
11849;BMP180;5983;49.966;8.052;2023-05-10T02:27:31;99872.00;;;14.00
11849;BMP180;5983;49.966;8.052;2023-05-10T02:29:58;99873.00;;;14.00
11849;BMP180;5983;49.966;8.052;2023-05-10T02:32:27;99863.00;;;14.00
11849;BMP180;5983;49.966;8.052;2023-05-10T02:34:54;99858.00;;;13.90
11849;BMP180;5983;49.966;8.052;2023-05-10T02:37:23;99871.00;;;13.90
11849;BMP180;5983;49.966;8.052;2023-05-10T02:39:53;99880.00;;;13.90
11849;BMP180;5983;49.966;8.052;2023-05-10T02:42:24;99882.00;;;13.90
11849;BMP180;5983;49.966;8.052;2023-05-10T02:44:53;99883.00;;;13.90
11849;BMP180;5983;49.966;8.052;2023-05-10T02:47:22;99876.00;;;13.90
11849;BMP180;5983;49.966;8.052;2023-05-10T02:49:49;99881.00;;;13.90
11849;BMP180;5983;49.966;8.052;2023-05-10T02:52:21;99874.00;;;13.90
11849;BMP180;5983;49.966;8.052;2023-05-10T02:54:52;99878.00;;;13.90
11849;BMP180;5983;49.966;8.052;2023-05-10T02:57:25;99873.00;;;13.90
11849;BMP180;5983;49.966;8.052;2023-05-10T02:59:53;99874.00;;;14.00
11849;BMP180;5983;49.966;8.052;2023-05-10T03:02:20;99868.00;;;13.90
11849;BMP180;5983;49.966;8.052;2023-05-10T03:04:47;99871.00;;;13.90
11849;BMP180;5983;49.966;8.052;2023-05-10T03:09:40;99869.00;;;13.90
11849;BMP180;5983;49.966;8.052;2023-05-10T03:12:14;99875.00;;;13.90
11849;BMP180;5983;49.966;8.052;2023-05-10T03:14:49;99881.00;;;13.90
11849;BMP180;5983;49.966;8.052;2023-05-10T03:17:23;99880.00;;;13.90
11849;BMP180;5983;49.966;8.052;2023-05-10T03:19:54;99874.00;;;13.90
11849;BMP180;5983;49.966;8.052;2023-05-10T03:22:24;99875.00;;;13.90
11849;BMP180;5983;49.966;8.052;2023-05-10T03:24:53;99875.00;;;13.90
11849;BMP180;5983;49.966;8.052;2023-05-10T03:27:25;99883.00;;;13.90
11849;BMP180;5983;49.966;8.052;2023-05-10T03:29:53;99882.00;;;13.90
11849;BMP180;5983;49.966;8.052;2023-05-10T03:32:21;99881.00;;;13.90
11849;BMP180;5983;49.966;8.052;2023-05-10T03:34:48;99892.00;;;13.90
11849;BMP180;5983;49.966;8.052;2023-05-10T03:37:15;99887.00;;;13.90
11849;BMP180;5983;49.966;8.052;2023-05-10T03:39:41;99898.00;;;13.90
11849;BMP180;5983;49.966;8.052;2023-05-10T03:42:08;99897.00;;;13.90
11849;BMP180;5983;49.966;8.052;2023-05-10T03:44:38;99898.00;;;13.90
11849;BMP180;5983;49.966;8.052;2023-05-10T03:47:05;99903.00;;;13.90
11849;BMP180;5983;49.966;8.052;2023-05-10T03:49:32;99902.00;;;13.90
11849;BMP180;5983;49.966;8.052;2023-05-10T03:51:58;99903.00;;;13.90
11849;BMP180;5983;49.966;8.052;2023-05-10T03:54:25;99891.00;;;13.90
11849;BMP180;5983;49.966;8.052;2023-05-10T03:56:52;99888.00;;;13.90
11849;BMP180;5983;49.966;8.052;2023-05-10T03:59:19;99895.00;;;13.90
11849;BMP180;5983;49.966;8.052;2023-05-10T04:01:47;99888.00;;;13.90
11849;BMP180;5983;49.966;8.052;2023-05-10T04:04:13;99892.00;;;13.90
11849;BMP180;5983;49.966;8.052;2023-05-10T04:06:40;99895.00;;;13.90
11849;BMP180;5983;49.966;8.052;2023-05-10T04:09:07;99891.00;;;13.90
11849;BMP180;5983;49.966;8.052;2023-05-10T04:11:34;99895.00;;;13.90
11849;BMP180;5983;49.966;8.052;2023-05-10T04:14:01;99893.00;;;13.90
11849;BMP180;5983;49.966;8.052;2023-05-10T04:16:28;99894.00;;;13.90
11849;BMP180;5983;49.966;8.052;2023-05-10T04:18:56;99893.00;;;13.90
11849;BMP180;5983;49.966;8.052;2023-05-10T04:21:23;99900.00;;;13.90
11849;BMP180;5983;49.966;8.052;2023-05-10T04:23:50;99907.00;;;13.90
11849;BMP180;5983;49.966;8.052;2023-05-10T04:26:16;99897.00;;;13.90
11849;BMP180;5983;49.966;8.052;2023-05-10T04:28:43;99904.00;;;13.90
11849;BMP180;5983;49.966;8.052;2023-05-10T04:31:10;99905.00;;;13.90
11849;BMP180;5983;49.966;8.052;2023-05-10T04:33:37;99912.00;;;13.90
11849;BMP180;5983;49.966;8.052;2023-05-10T04:36:06;99911.00;;;13.90
11849;BMP180;5983;49.966;8.052;2023-05-10T04:38:32;99910.00;;;13.90
11849;BMP180;5983;49.966;8.052;2023-05-10T04:41:06;99916.00;;;13.90
11849;BMP180;5983;49.966;8.052;2023-05-10T04:43:33;99925.00;;;13.90
11849;BMP180;5983;49.966;8.052;2023-05-10T04:46:00;99931.00;;;13.80
11849;BMP180;5983;49.966;8.052;2023-05-10T04:48:27;99939.00;;;13.80
11849;BMP180;5983;49.966;8.052;2023-05-10T04:50:54;99936.00;;;13.80
11849;BMP180;5983;49.966;8.052;2023-05-10T04:53:22;99939.00;;;13.80
11849;BMP180;5983;49.966;8.052;2023-05-10T04:55:48;99935.00;;;13.80
11849;BMP180;5983;49.966;8.052;2023-05-10T04:58:15;99935.00;;;13.80
11849;BMP180;5983;49.966;8.052;2023-05-10T05:00:42;99939.00;;;13.80
11849;BMP180;5983;49.966;8.052;2023-05-10T05:03:09;99940.00;;;13.80
11849;BMP180;5983;49.966;8.052;2023-05-10T05:05:36;99941.00;;;13.80
11849;BMP180;5983;49.966;8.052;2023-05-10T05:08:03;99940.00;;;13.80
11849;BMP180;5983;49.966;8.052;2023-05-10T05:10:31;99938.00;;;13.80
11849;BMP180;5983;49.966;8.052;2023-05-10T05:12:58;99932.00;;;13.80
11849;BMP180;5983;49.966;8.052;2023-05-10T05:15:24;99935.00;;;13.90
11849;BMP180;5983;49.966;8.052;2023-05-10T05:17:51;99945.00;;;14.00
11849;BMP180;5983;49.966;8.052;2023-05-10T05:20:18;99946.00;;;14.00
11849;BMP180;5983;49.966;8.052;2023-05-10T05:22:45;99936.00;;;14.20
11849;BMP180;5983;49.966;8.052;2023-05-10T05:25:12;99944.00;;;14.30
11849;BMP180;5983;49.966;8.052;2023-05-10T05:27:40;99949.00;;;14.50
11849;BMP180;5983;49.966;8.052;2023-05-10T05:30:07;99949.00;;;14.70
11849;BMP180;5983;49.966;8.052;2023-05-10T05:32:34;99955.00;;;14.90
11849;BMP180;5983;49.966;8.052;2023-05-10T05:35:01;99951.00;;;15.00
11849;BMP180;5983;49.966;8.052;2023-05-10T05:37:28;99959.00;;;15.10
11849;BMP180;5983;49.966;8.052;2023-05-10T05:39:54;99955.00;;;15.20
11849;BMP180;5983;49.966;8.052;2023-05-10T05:42:21;99962.00;;;15.30
11849;BMP180;5983;49.966;8.052;2023-05-10T05:44:49;99969.00;;;15.50
11849;BMP180;5983;49.966;8.052;2023-05-10T05:47:16;99959.00;;;15.50
11849;BMP180;5983;49.966;8.052;2023-05-10T05:49:43;99962.00;;;15.60
11849;BMP180;5983;49.966;8.052;2023-05-10T05:52:11;99961.00;;;15.70
11849;BMP180;5983;49.966;8.052;2023-05-10T05:54:38;99962.00;;;15.80
11849;BMP180;5983;49.966;8.052;2023-05-10T05:57:05;99962.00;;;15.90
11849;BMP180;5983;49.966;8.052;2023-05-10T05:59:31;99968.00;;;16.00
11849;BMP180;5983;49.966;8.052;2023-05-10T06:01:59;99972.00;;;16.10
11849;BMP180;5983;49.966;8.052;2023-05-10T06:04:26;99963.00;;;16.30
11849;BMP180;5983;49.966;8.052;2023-05-10T06:06:53;99975.00;;;16.40
11849;BMP180;5983;49.966;8.052;2023-05-10T06:09:19;99978.00;;;16.70
11849;BMP180;5983;49.966;8.052;2023-05-10T06:11:46;99977.00;;;16.70
11849;BMP180;5983;49.966;8.052;2023-05-10T06:14:13;99988.00;;;16.70
11849;BMP180;5983;49.966;8.052;2023-05-10T06:16:40;99977.00;;;16.70
11849;BMP180;5983;49.966;8.052;2023-05-10T06:19:08;99986.00;;;16.80
11849;BMP180;5983;49.966;8.052;2023-05-10T06:21:35;99986.00;;;16.90
11849;BMP180;5983;49.966;8.052;2023-05-10T06:24:01;99991.00;;;17.00
11849;BMP180;5983;49.966;8.052;2023-05-10T06:26:28;99992.00;;;17.20
11849;BMP180;5983;49.966;8.052;2023-05-10T06:28:55;99988.00;;;17.30
11849;BMP180;5983;49.966;8.052;2023-05-10T06:31:22;99997.00;;;17.40
11849;BMP180;5983;49.966;8.052;2023-05-10T06:33:49;99986.00;;;17.50
11849;BMP180;5983;49.966;8.052;2023-05-10T06:36:17;99995.00;;;17.60
11849;BMP180;5983;49.966;8.052;2023-05-10T06:38:43;99993.00;;;17.70
11849;BMP180;5983;49.966;8.052;2023-05-10T06:41:10;99991.00;;;17.80
11849;BMP180;5983;49.966;8.052;2023-05-10T06:43:37;100009.00;;;17.80
11849;BMP180;5983;49.966;8.052;2023-05-10T06:46:05;100006.00;;;17.90
11849;BMP180;5983;49.966;8.052;2023-05-10T06:48:33;100006.00;;;18.00
11849;BMP180;5983;49.966;8.052;2023-05-10T06:50:59;100004.00;;;17.90
11849;BMP180;5983;49.966;8.052;2023-05-10T06:53:27;100002.00;;;18.00
11849;BMP180;5983;49.966;8.052;2023-05-10T06:55:54;99999.00;;;18.10
11849;BMP180;5983;49.966;8.052;2023-05-10T06:58:21;100002.00;;;18.20
11849;BMP180;5983;49.966;8.052;2023-05-10T07:00:48;99996.00;;;18.40
11849;BMP180;5983;49.966;8.052;2023-05-10T07:03:15;100006.00;;;18.50
11849;BMP180;5983;49.966;8.052;2023-05-10T07:05:42;100007.00;;;18.60
11849;BMP180;5983;49.966;8.052;2023-05-10T07:08:09;100017.00;;;18.70
11849;BMP180;5983;49.966;8.052;2023-05-10T07:10:37;100014.00;;;18.80
11849;BMP180;5983;49.966;8.052;2023-05-10T07:13:03;100020.00;;;18.80
11849;BMP180;5983;49.966;8.052;2023-05-10T07:15:30;100022.00;;;18.70
11849;BMP180;5983;49.966;8.052;2023-05-10T07:17:57;100024.00;;;18.60
11849;BMP180;5983;49.966;8.052;2023-05-10T07:20:23;100021.00;;;18.60
11849;BMP180;5983;49.966;8.052;2023-05-10T07:22:50;100038.00;;;18.60
11849;BMP180;5983;49.966;8.052;2023-05-10T07:25:17;100042.00;;;18.50
11849;BMP180;5983;49.966;8.052;2023-05-10T07:27:45;100027.00;;;18.60
11849;BMP180;5983;49.966;8.052;2023-05-10T07:30:14;100038.00;;;18.70
11849;BMP180;5983;49.966;8.052;2023-05-10T07:32:41;100048.00;;;18.80
11849;BMP180;5983;49.966;8.052;2023-05-10T07:35:08;100040.00;;;18.90
11849;BMP180;5983;49.966;8.052;2023-05-10T07:37:35;100041.00;;;18.90
11849;BMP180;5983;49.966;8.052;2023-05-10T07:40:02;100045.00;;;18.90
11849;BMP180;5983;49.966;8.052;2023-05-10T07:42:29;100049.00;;;18.90
11849;BMP180;5983;49.966;8.052;2023-05-10T07:44:57;100044.00;;;18.70
11849;BMP180;5983;49.966;8.052;2023-05-10T07:47:23;100057.00;;;18.60
11849;BMP180;5983;49.966;8.052;2023-05-10T07:49:50;100053.00;;;18.50
11849;BMP180;5983;49.966;8.052;2023-05-10T07:52:17;100053.00;;;18.40
11849;BMP180;5983;49.966;8.052;2023-05-10T07:54:43;100045.00;;;18.20
11849;BMP180;5983;49.966;8.052;2023-05-10T07:57:11;100055.00;;;18.20
11849;BMP180;5983;49.966;8.052;2023-05-10T07:59:40;100055.00;;;18.10
11849;BMP180;5983;49.966;8.052;2023-05-10T08:02:08;100052.00;;;18.10
11849;BMP180;5983;49.966;8.052;2023-05-10T08:04:34;100047.00;;;18.10
11849;BMP180;5983;49.966;8.052;2023-05-10T08:07:01;100053.00;;;18.20
11849;BMP180;5983;49.966;8.052;2023-05-10T08:09:28;100042.00;;;18.30
11849;BMP180;5983;49.966;8.052;2023-05-10T08:11:54;100043.00;;;18.30
11849;BMP180;5983;49.966;8.052;2023-05-10T08:14:21;100048.00;;;18.40
11849;BMP180;5983;49.966;8.052;2023-05-10T08:16:48;100043.00;;;18.30
11849;BMP180;5983;49.966;8.052;2023-05-10T08:19:16;100057.00;;;18.30
11849;BMP180;5983;49.966;8.052;2023-05-10T08:21:45;100056.00;;;18.20
11849;BMP180;5983;49.966;8.052;2023-05-10T08:24:12;100063.00;;;18.20
11849;BMP180;5983;49.966;8.052;2023-05-10T08:26:38;100057.00;;;18.10
11849;BMP180;5983;49.966;8.052;2023-05-10T08:29:05;100054.00;;;18.00
11849;BMP180;5983;49.966;8.052;2023-05-10T08:31:32;100055.00;;;17.90
11849;BMP180;5983;49.966;8.052;2023-05-10T08:33:59;100058.00;;;17.90
11849;BMP180;5983;49.966;8.052;2023-05-10T08:36:27;100060.00;;;18.00
11849;BMP180;5983;49.966;8.052;2023-05-10T08:38:54;100064.00;;;18.00
11849;BMP180;5983;49.966;8.052;2023-05-10T08:41:21;100069.00;;;18.10
11849;BMP180;5983;49.966;8.052;2023-05-10T08:43:50;100066.00;;;18.10
11849;BMP180;5983;49.966;8.052;2023-05-10T08:46:18;100075.00;;;18.20
11849;BMP180;5983;49.966;8.052;2023-05-10T08:48:46;100073.00;;;18.10
11849;BMP180;5983;49.966;8.052;2023-05-10T08:51:14;100083.00;;;18.10
11849;BMP180;5983;49.966;8.052;2023-05-10T08:53:43;100083.00;;;18.10
11849;BMP180;5983;49.966;8.052;2023-05-10T08:56:11;100086.00;;;18.00
11849;BMP180;5983;49.966;8.052;2023-05-10T08:58:38;100091.00;;;17.90
11849;BMP180;5983;49.966;8.052;2023-05-10T09:01:05;100094.00;;;17.80
11849;BMP180;5983;49.966;8.052;2023-05-10T09:03:32;100104.00;;;17.90
11849;BMP180;5983;49.966;8.052;2023-05-10T09:05:58;100095.00;;;17.90
11849;BMP180;5983;49.966;8.052;2023-05-10T09:08:26;100109.00;;;17.90
11849;BMP180;5983;49.966;8.052;2023-05-10T09:10:55;100107.00;;;18.00
11849;BMP180;5983;49.966;8.052;2023-05-10T09:13:22;100112.00;;;18.00
11849;BMP180;5983;49.966;8.052;2023-05-10T09:15:49;100107.00;;;18.00
11849;BMP180;5983;49.966;8.052;2023-05-10T09:18:17;100107.00;;;18.00
11849;BMP180;5983;49.966;8.052;2023-05-10T09:20:43;100107.00;;;18.10
11849;BMP180;5983;49.966;8.052;2023-05-10T09:23:10;100109.00;;;18.20
11849;BMP180;5983;49.966;8.052;2023-05-10T09:25:37;100116.00;;;18.40
11849;BMP180;5983;49.966;8.052;2023-05-10T09:28:07;100115.00;;;18.90
11849;BMP180;5983;49.966;8.052;2023-05-10T09:30:35;100117.00;;;19.60
11849;BMP180;5983;49.966;8.052;2023-05-10T09:33:02;100119.00;;;20.10
11849;BMP180;5983;49.966;8.052;2023-05-10T09:35:31;100126.00;;;20.30
11849;BMP180;5983;49.966;8.052;2023-05-10T09:38:00;100126.00;;;20.50
11849;BMP180;5983;49.966;8.052;2023-05-10T09:40:28;100124.00;;;20.60
11849;BMP180;5983;49.966;8.052;2023-05-10T09:42:56;100119.00;;;20.70
11849;BMP180;5983;49.966;8.052;2023-05-10T09:45:26;100132.00;;;20.80
11849;BMP180;5983;49.966;8.052;2023-05-10T09:47:53;100124.00;;;20.80
11849;BMP180;5983;49.966;8.052;2023-05-10T09:50:20;100128.00;;;20.70
11849;BMP180;5983;49.966;8.052;2023-05-10T09:52:49;100121.00;;;20.90
11849;BMP180;5983;49.966;8.052;2023-05-10T09:55:19;100123.00;;;20.90
11849;BMP180;5983;49.966;8.052;2023-05-10T09:57:47;100121.00;;;20.80
11849;BMP180;5983;49.966;8.052;2023-05-10T10:00:18;100125.00;;;20.70
11849;BMP180;5983;49.966;8.052;2023-05-10T10:02:47;100125.00;;;20.80
11849;BMP180;5983;49.966;8.052;2023-05-10T10:05:14;100123.00;;;20.90
11849;BMP180;5983;49.966;8.052;2023-05-10T10:07:41;100129.00;;;21.10
11849;BMP180;5983;49.966;8.052;2023-05-10T10:10:08;100131.00;;;21.10
11849;BMP180;5983;49.966;8.052;2023-05-10T10:12:40;100124.00;;;21.20
11849;BMP180;5983;49.966;8.052;2023-05-10T10:15:08;100121.00;;;21.20
11849;BMP180;5983;49.966;8.052;2023-05-10T10:17:36;100126.00;;;21.20
11849;BMP180;5983;49.966;8.052;2023-05-10T10:20:06;100131.00;;;21.10
11849;BMP180;5983;49.966;8.052;2023-05-10T10:22:33;100130.00;;;20.90
11849;BMP180;5983;49.966;8.052;2023-05-10T10:25:00;100132.00;;;20.90
11849;BMP180;5983;49.966;8.052;2023-05-10T10:27:35;100126.00;;;20.90
11849;BMP180;5983;49.966;8.052;2023-05-10T10:30:12;100132.00;;;20.70
11849;BMP180;5983;49.966;8.052;2023-05-10T10:32:57;100144.00;;;20.40
11849;BMP180;5983;49.966;8.052;2023-05-10T10:35:29;100143.00;;;20.20
11849;BMP180;5983;49.966;8.052;2023-05-10T10:37:56;100147.00;;;20.10
11849;BMP180;5983;49.966;8.052;2023-05-10T10:40:24;100142.00;;;20.00
11849;BMP180;5983;49.966;8.052;2023-05-10T10:42:52;100148.00;;;19.90
11849;BMP180;5983;49.966;8.052;2023-05-10T10:45:20;100138.00;;;19.90
11849;BMP180;5983;49.966;8.052;2023-05-10T10:47:47;100142.00;;;19.90
11849;BMP180;5983;49.966;8.052;2023-05-10T10:50:13;100144.00;;;19.90
11849;BMP180;5983;49.966;8.052;2023-05-10T10:52:43;100143.00;;;20.00
11849;BMP180;5983;49.966;8.052;2023-05-10T10:55:11;100142.00;;;20.20
11849;BMP180;5983;49.966;8.052;2023-05-10T10:57:49;100144.00;;;20.20
11849;BMP180;5983;49.966;8.052;2023-05-10T11:00:25;100130.00;;;20.30
11849;BMP180;5983;49.966;8.052;2023-05-10T11:02:54;100136.00;;;20.50
11849;BMP180;5983;49.966;8.052;2023-05-10T11:05:23;100152.00;;;20.60
11849;BMP180;5983;49.966;8.052;2023-05-10T11:07:52;100152.00;;;20.80
11849;BMP180;5983;49.966;8.052;2023-05-10T11:10:20;100146.00;;;20.80
11849;BMP180;5983;49.966;8.052;2023-05-10T11:12:54;100145.00;;;20.80
11849;BMP180;5983;49.966;8.052;2023-05-10T11:15:29;100152.00;;;21.00
11849;BMP180;5983;49.966;8.052;2023-05-10T11:17:56;100150.00;;;21.10
11849;BMP180;5983;49.966;8.052;2023-05-10T11:20:27;100150.00;;;21.40
11849;BMP180;5983;49.966;8.052;2023-05-10T11:23:11;100143.00;;;22.00
11849;BMP180;5983;49.966;8.052;2023-05-10T11:25:41;100151.00;;;22.40
11849;BMP180;5983;49.966;8.052;2023-05-10T11:28:08;100161.00;;;22.60
11849;BMP180;5983;49.966;8.052;2023-05-10T11:30:35;100154.00;;;22.60
11849;BMP180;5983;49.966;8.052;2023-05-10T11:33:02;100157.00;;;22.50
11849;BMP180;5983;49.966;8.052;2023-05-10T11:35:29;100161.00;;;22.50
11849;BMP180;5983;49.966;8.052;2023-05-10T11:37:55;100153.00;;;22.30
11849;BMP180;5983;49.966;8.052;2023-05-10T11:40:23;100157.00;;;21.90
11849;BMP180;5983;49.966;8.052;2023-05-10T11:42:51;100162.00;;;21.50
11849;BMP180;5983;49.966;8.052;2023-05-10T11:45:18;100167.00;;;21.20
11849;BMP180;5983;49.966;8.052;2023-05-10T11:47:48;100163.00;;;20.90
11849;BMP180;5983;49.966;8.052;2023-05-10T11:50:16;100172.00;;;20.70
11849;BMP180;5983;49.966;8.052;2023-05-10T11:52:43;100172.00;;;20.60
11849;BMP180;5983;49.966;8.052;2023-05-10T11:55:10;100179.00;;;20.80
11849;BMP180;5983;49.966;8.052;2023-05-10T11:57:38;100175.00;;;21.10
11849;BMP180;5983;49.966;8.052;2023-05-10T12:00:07;100174.00;;;21.40
11849;BMP180;5983;49.966;8.052;2023-05-10T12:02:34;100180.00;;;21.50
11849;BMP180;5983;49.966;8.052;2023-05-10T12:05:02;100189.00;;;21.70
11849;BMP180;5983;49.966;8.052;2023-05-10T12:07:29;100194.00;;;22.00
11849;BMP180;5983;49.966;8.052;2023-05-10T12:10:08;100187.00;;;22.10
11849;BMP180;5983;49.966;8.052;2023-05-10T12:12:40;100204.00;;;22.30
11849;BMP180;5983;49.966;8.052;2023-05-10T12:15:12;100193.00;;;22.30
11849;BMP180;5983;49.966;8.052;2023-05-10T12:17:43;100212.00;;;22.40
11849;BMP180;5983;49.966;8.052;2023-05-10T12:20:17;100208.00;;;22.20
11849;BMP180;5983;49.966;8.052;2023-05-10T12:22:46;100201.00;;;22.00
11849;BMP180;5983;49.966;8.052;2023-05-10T12:25:12;100211.00;;;21.80
11849;BMP180;5983;49.966;8.052;2023-05-10T12:27:41;100207.00;;;21.70
11849;BMP180;5983;49.966;8.052;2023-05-10T12:30:08;100203.00;;;21.40
11849;BMP180;5983;49.966;8.052;2023-05-10T12:32:39;100195.00;;;21.10
11849;BMP180;5983;49.966;8.052;2023-05-10T12:35:06;100206.00;;;21.00
11849;BMP180;5983;49.966;8.052;2023-05-10T12:37:34;100207.00;;;20.90
11849;BMP180;5983;49.966;8.052;2023-05-10T12:40:06;100204.00;;;20.90
11849;BMP180;5983;49.966;8.052;2023-05-10T12:42:33;100213.00;;;20.90
11849;BMP180;5983;49.966;8.052;2023-05-10T12:45:02;100206.00;;;20.90
11849;BMP180;5983;49.966;8.052;2023-05-10T12:47:31;100213.00;;;20.90
11849;BMP180;5983;49.966;8.052;2023-05-10T12:49:57;100209.00;;;20.80
11849;BMP180;5983;49.966;8.052;2023-05-10T12:52:24;100208.00;;;20.80
11849;BMP180;5983;49.966;8.052;2023-05-10T12:54:51;100204.00;;;20.90
11849;BMP180;5983;49.966;8.052;2023-05-10T12:57:18;100208.00;;;20.90
11849;BMP180;5983;49.966;8.052;2023-05-10T12:59:45;100211.00;;;21.00
11849;BMP180;5983;49.966;8.052;2023-05-10T13:02:13;100205.00;;;21.10
11849;BMP180;5983;49.966;8.052;2023-05-10T13:04:40;100208.00;;;21.30
11849;BMP180;5983;49.966;8.052;2023-05-10T13:07:07;100205.00;;;21.50
11849;BMP180;5983;49.966;8.052;2023-05-10T13:09:35;100200.00;;;21.60
11849;BMP180;5983;49.966;8.052;2023-05-10T13:12:02;100199.00;;;21.70
11849;BMP180;5983;49.966;8.052;2023-05-10T13:14:29;100198.00;;;22.00
11849;BMP180;5983;49.966;8.052;2023-05-10T13:16:56;100193.00;;;22.20
11849;BMP180;5983;49.966;8.052;2023-05-10T13:19:24;100198.00;;;22.40
11849;BMP180;5983;49.966;8.052;2023-05-10T13:21:50;100201.00;;;22.40
11849;BMP180;5983;49.966;8.052;2023-05-10T13:24:17;100193.00;;;22.50
11849;BMP180;5983;49.966;8.052;2023-05-10T13:26:44;100187.00;;;22.40
11849;BMP180;5983;49.966;8.052;2023-05-10T13:29:10;100191.00;;;22.30
11849;BMP180;5983;49.966;8.052;2023-05-10T13:31:37;100179.00;;;22.20
11849;BMP180;5983;49.966;8.052;2023-05-10T13:34:05;100189.00;;;22.00
11849;BMP180;5983;49.966;8.052;2023-05-10T13:36:33;100187.00;;;21.90
11849;BMP180;5983;49.966;8.052;2023-05-10T13:39:00;100205.00;;;21.90
11849;BMP180;5983;49.966;8.052;2023-05-10T13:41:28;100191.00;;;21.80
11849;BMP180;5983;49.966;8.052;2023-05-10T13:43:55;100190.00;;;21.90
11849;BMP180;5983;49.966;8.052;2023-05-10T13:46:22;100191.00;;;22.10
11849;BMP180;5983;49.966;8.052;2023-05-10T13:48:48;100189.00;;;22.10
11849;BMP180;5983;49.966;8.052;2023-05-10T13:51:15;100189.00;;;22.30
11849;BMP180;5983;49.966;8.052;2023-05-10T13:53:43;100190.00;;;22.30
11849;BMP180;5983;49.966;8.052;2023-05-10T13:56:12;100186.00;;;22.30
11849;BMP180;5983;49.966;8.052;2023-05-10T13:58:39;100188.00;;;22.30
11849;BMP180;5983;49.966;8.052;2023-05-10T14:01:06;100195.00;;;22.10
11849;BMP180;5983;49.966;8.052;2023-05-10T14:03:33;100182.00;;;22.00
11849;BMP180;5983;49.966;8.052;2023-05-10T14:06:00;100184.00;;;22.00
11849;BMP180;5983;49.966;8.052;2023-05-10T14:08:27;100176.00;;;21.90
11849;BMP180;5983;49.966;8.052;2023-05-10T14:10:55;100171.00;;;22.00
11849;BMP180;5983;49.966;8.052;2023-05-10T14:13:23;100182.00;;;21.80
11849;BMP180;5983;49.966;8.052;2023-05-10T14:15:50;100171.00;;;21.50
11849;BMP180;5983;49.966;8.052;2023-05-10T14:18:17;100168.00;;;21.40
11849;BMP180;5983;49.966;8.052;2023-05-10T14:20:43;100178.00;;;21.40
11849;BMP180;5983;49.966;8.052;2023-05-10T14:23:10;100171.00;;;21.40